sensor_id;sensor_type;location;lat;lon;timestamp;temperature;humidity
1778;DHT22;71547;50.146;8.174;2023-07-24T00:02:04;19.60;99.90
1778;DHT22;71547;50.146;8.174;2023-07-24T00:04:32;19.60;99.90
1778;DHT22;71547;50.146;8.174;2023-07-24T00:07:03;19.60;99.90
1778;DHT22;71547;50.146;8.174;2023-07-24T00:09:33;19.60;99.90
1778;DHT22;71547;50.146;8.174;2023-07-24T00:12:01;19.60;99.90
1778;DHT22;71547;50.146;8.174;2023-07-24T00:14:32;19.60;99.90
1778;DHT22;71547;50.146;8.174;2023-07-24T00:16:59;19.50;99.90
1778;DHT22;71547;50.146;8.174;2023-07-24T00:19:27;19.50;99.90
1778;DHT22;71547;50.146;8.174;2023-07-24T00:21:57;19.50;99.90
1778;DHT22;71547;50.146;8.174;2023-07-24T00:24:27;19.60;99.90
1778;DHT22;71547;50.146;8.174;2023-07-24T00:27:00;19.60;99.90
1778;DHT22;71547;50.146;8.174;2023-07-24T00:29:28;19.50;99.90
1778;DHT22;71547;50.146;8.174;2023-07-24T00:32:00;19.50;99.90
1778;DHT22;71547;50.146;8.174;2023-07-24T00:34:30;19.50;99.90
1778;DHT22;71547;50.146;8.174;2023-07-24T00:36:59;19.40;99.90
1778;DHT22;71547;50.146;8.174;2023-07-24T00:39:30;19.40;99.90
1778;DHT22;71547;50.146;8.174;2023-07-24T00:41:57;19.40;99.90
1778;DHT22;71547;50.146;8.174;2023-07-24T00:44:26;19.40;99.90
1778;DHT22;71547;50.146;8.174;2023-07-24T00:46:54;19.30;99.90
1778;DHT22;71547;50.146;8.174;2023-07-24T00:49:25;19.20;99.90
1778;DHT22;71547;50.146;8.174;2023-07-24T00:52:05;19.20;99.90
1778;DHT22;71547;50.146;8.174;2023-07-24T00:54:34;19.30;99.90
1778;DHT22;71547;50.146;8.174;2023-07-24T00:57:02;19.20;99.90
1778;DHT22;71547;50.146;8.174;2023-07-24T00:59:31;19.20;99.90
1778;DHT22;71547;50.146;8.174;2023-07-24T01:02:03;19.20;99.90
1778;DHT22;71547;50.146;8.174;2023-07-24T01:04:35;19.10;99.90
1778;DHT22;71547;50.146;8.174;2023-07-24T01:07:03;19.10;99.90
1778;DHT22;71547;50.146;8.174;2023-07-24T01:09:33;19.10;99.90
1778;DHT22;71547;50.146;8.174;2023-07-24T01:12:10;19.20;99.90
1778;DHT22;71547;50.146;8.174;2023-07-24T01:14:49;19.10;99.90
1778;DHT22;71547;50.146;8.174;2023-07-24T01:17:26;19.20;99.90
1778;DHT22;71547;50.146;8.174;2023-07-24T01:20:08;19.20;99.90
1778;DHT22;71547;50.146;8.174;2023-07-24T01:22:52;19.10;99.90
1778;DHT22;71547;50.146;8.174;2023-07-24T01:26:00;19.00;99.90
1778;DHT22;71547;50.146;8.174;2023-07-24T01:28:33;19.10;99.90
1778;DHT22;71547;50.146;8.174;2023-07-24T01:31:02;19.10;99.90
1778;DHT22;71547;50.146;8.174;2023-07-24T01:33:30;19.10;99.90
1778;DHT22;71547;50.146;8.174;2023-07-24T01:36:02;19.10;99.90
1778;DHT22;71547;50.146;8.174;2023-07-24T01:38:31;19.10;99.90
1778;DHT22;71547;50.146;8.174;2023-07-24T01:41:09;19.20;99.90
1778;DHT22;71547;50.146;8.174;2023-07-24T01:43:38;19.10;99.90
1778;DHT22;71547;50.146;8.174;2023-07-24T01:46:05;19.20;99.90
1778;DHT22;71547;50.146;8.174;2023-07-24T01:48:34;19.30;99.90
1778;DHT22;71547;50.146;8.174;2023-07-24T01:51:03;19.20;99.90
1778;DHT22;71547;50.146;8.174;2023-07-24T01:53:31;19.10;99.90
1778;DHT22;71547;50.146;8.174;2023-07-24T01:55:58;19.20;99.90
1778;DHT22;71547;50.146;8.174;2023-07-24T01:58:28;19.20;99.90
1778;DHT22;71547;50.146;8.174;2023-07-24T02:00:59;19.30;99.90
1778;DHT22;71547;50.146;8.174;2023-07-24T02:03:34;19.30;99.90
1778;DHT22;71547;50.146;8.174;2023-07-24T02:06:06;19.30;99.90
1778;DHT22;71547;50.146;8.174;2023-07-24T02:08:36;19.30;99.90
1778;DHT22;71547;50.146;8.174;2023-07-24T02:11:04;19.20;99.90
1778;DHT22;71547;50.146;8.174;2023-07-24T02:13:40;19.20;99.90
1778;DHT22;71547;50.146;8.174;2023-07-24T02:16:07;19.20;99.90
1778;DHT22;71547;50.146;8.174;2023-07-24T02:18:36;19.20;99.90
1778;DHT22;71547;50.146;8.174;2023-07-24T02:21:04;19.30;99.90
1778;DHT22;71547;50.146;8.174;2023-07-24T02:23:31;19.20;99.90
1778;DHT22;71547;50.146;8.174;2023-07-24T02:26:06;19.20;99.90
1778;DHT22;71547;50.146;8.174;2023-07-24T02:28:36;19.10;99.90
1778;DHT22;71547;50.146;8.174;2023-07-24T02:31:07;19.20;99.90
1778;DHT22;71547;50.146;8.174;2023-07-24T02:33:40;19.10;99.90
1778;DHT22;71547;50.146;8.174;2023-07-24T02:36:11;19.10;99.90
1778;DHT22;71547;50.146;8.174;2023-07-24T02:38:39;19.00;99.90
1778;DHT22;71547;50.146;8.174;2023-07-24T02:41:12;18.90;99.90
1778;DHT22;71547;50.146;8.174;2023-07-24T02:43:40;18.70;99.90
1778;DHT22;71547;50.146;8.174;2023-07-24T02:46:11;18.70;99.90
1778;DHT22;71547;50.146;8.174;2023-07-24T02:48:39;18.80;99.90
1778;DHT22;71547;50.146;8.174;2023-07-24T02:51:12;18.90;99.90
1778;DHT22;71547;50.146;8.174;2023-07-24T02:53:43;18.90;99.90
1778;DHT22;71547;50.146;8.174;2023-07-24T02:56:13;18.80;99.90
1778;DHT22;71547;50.146;8.174;2023-07-24T02:58:42;18.80;99.90
1778;DHT22;71547;50.146;8.174;2023-07-24T03:01:13;18.80;99.90
1778;DHT22;71547;50.146;8.174;2023-07-24T03:03:51;18.80;99.90
1778;DHT22;71547;50.146;8.174;2023-07-24T03:06:21;18.80;99.90
1778;DHT22;71547;50.146;8.174;2023-07-24T03:08:48;18.80;99.90
1778;DHT22;71547;50.146;8.174;2023-07-24T03:11:18;18.80;99.90
1778;DHT22;71547;50.146;8.174;2023-07-24T03:13:46;18.70;99.90
1778;DHT22;71547;50.146;8.174;2023-07-24T03:16:15;18.70;99.90
1778;DHT22;71547;50.146;8.174;2023-07-24T03:18:48;18.60;99.90
1778;DHT22;71547;50.146;8.174;2023-07-24T03:21:21;18.70;99.90
1778;DHT22;71547;50.146;8.174;2023-07-24T03:23:49;18.70;99.90
1778;DHT22;71547;50.146;8.174;2023-07-24T03:26:16;18.70;99.90
1778;DHT22;71547;50.146;8.174;2023-07-24T03:28:47;18.70;99.90
1778;DHT22;71547;50.146;8.174;2023-07-24T03:31:22;18.70;99.90
1778;DHT22;71547;50.146;8.174;2023-07-24T03:33:52;18.70;99.90
1778;DHT22;71547;50.146;8.174;2023-07-24T03:36:19;18.70;99.90
1778;DHT22;71547;50.146;8.174;2023-07-24T03:38:50;18.70;99.90
1778;DHT22;71547;50.146;8.174;2023-07-24T03:41:17;18.70;99.90
1778;DHT22;71547;50.146;8.174;2023-07-24T03:43:49;18.60;99.90
1778;DHT22;71547;50.146;8.174;2023-07-24T03:46:23;18.70;99.90
1778;DHT22;71547;50.146;8.174;2023-07-24T03:48:53;18.60;99.90
1778;DHT22;71547;50.146;8.174;2023-07-24T03:51:35;18.50;99.90
1778;DHT22;71547;50.146;8.174;2023-07-24T03:54:05;18.50;99.90
1778;DHT22;71547;50.146;8.174;2023-07-24T03:56:36;18.40;99.90
1778;DHT22;71547;50.146;8.174;2023-07-24T03:59:05;18.40;99.90
1778;DHT22;71547;50.146;8.174;2023-07-24T04:01:37;18.30;99.90
1778;DHT22;71547;50.146;8.174;2023-07-24T04:04:04;18.20;99.90
1778;DHT22;71547;50.146;8.174;2023-07-24T04:06:36;18.10;99.90
1778;DHT22;71547;50.146;8.174;2023-07-24T04:09:03;18.20;99.90
1778;DHT22;71547;50.146;8.174;2023-07-24T04:11:31;18.10;99.90
1778;DHT22;71547;50.146;8.174;2023-07-24T04:13:58;18.20;99.90
1778;DHT22;71547;50.146;8.174;2023-07-24T04:16:37;18.20;99.90
1778;DHT22;71547;50.146;8.174;2023-07-24T04:19:07;18.20;99.90
1778;DHT22;71547;50.146;8.174;2023-07-24T04:21:38;18.20;99.90
1778;DHT22;71547;50.146;8.174;2023-07-24T04:24:06;18.10;99.90
1778;DHT22;71547;50.146;8.174;2023-07-24T04:26:37;18.00;99.90
1778;DHT22;71547;50.146;8.174;2023-07-24T04:29:23;17.90;99.90
1778;DHT22;71547;50.146;8.174;2023-07-24T04:31:58;17.90;99.90
1778;DHT22;71547;50.146;8.174;2023-07-24T04:34:26;17.90;99.90
1778;DHT22;71547;50.146;8.174;2023-07-24T04:36:56;17.80;99.90
1778;DHT22;71547;50.146;8.174;2023-07-24T04:39:25;17.80;99.90
1778;DHT22;71547;50.146;8.174;2023-07-24T04:41:53;17.80;99.90
1778;DHT22;71547;50.146;8.174;2023-07-24T04:44:25;17.80;99.90
1778;DHT22;71547;50.146;8.174;2023-07-24T04:46:57;17.80;99.90
1778;DHT22;71547;50.146;8.174;2023-07-24T04:49:25;17.80;99.90
1778;DHT22;71547;50.146;8.174;2023-07-24T04:51:57;17.80;99.90
1778;DHT22;71547;50.146;8.174;2023-07-24T04:54:25;17.80;99.90
1778;DHT22;71547;50.146;8.174;2023-07-24T04:56:55;17.80;99.90
1778;DHT22;71547;50.146;8.174;2023-07-24T04:59:27;17.90;99.90
1778;DHT22;71547;50.146;8.174;2023-07-24T05:01:59;17.80;99.90
1778;DHT22;71547;50.146;8.174;2023-07-24T05:04:30;17.80;99.90
1778;DHT22;71547;50.146;8.174;2023-07-24T05:06:57;17.80;99.90
1778;DHT22;71547;50.146;8.174;2023-07-24T05:09:27;17.80;99.90
1778;DHT22;71547;50.146;8.174;2023-07-24T05:11:55;18.00;99.90
1778;DHT22;71547;50.146;8.174;2023-07-24T05:14:24;18.20;99.90
1778;DHT22;71547;50.146;8.174;2023-07-24T05:16:56;18.20;99.90
1778;DHT22;71547;50.146;8.174;2023-07-24T05:19:24;18.20;99.90
1778;DHT22;71547;50.146;8.174;2023-07-24T05:21:53;18.40;99.90
1778;DHT22;71547;50.146;8.174;2023-07-24T05:24:23;18.50;99.90
1778;DHT22;71547;50.146;8.174;2023-07-24T05:26:52;18.60;99.90
1778;DHT22;71547;50.146;8.174;2023-07-24T05:29:22;18.70;99.90
1778;DHT22;71547;50.146;8.174;2023-07-24T05:31:49;18.70;99.90
1778;DHT22;71547;50.146;8.174;2023-07-24T05:34:18;18.70;99.90
1778;DHT22;71547;50.146;8.174;2023-07-24T05:36:46;18.80;99.90
1778;DHT22;71547;50.146;8.174;2023-07-24T05:39:17;18.80;99.90
1778;DHT22;71547;50.146;8.174;2023-07-24T05:41:47;18.90;99.90
1778;DHT22;71547;50.146;8.174;2023-07-24T05:44:15;19.00;99.90
1778;DHT22;71547;50.146;8.174;2023-07-24T05:46:42;18.90;99.90
1778;DHT22;71547;50.146;8.174;2023-07-24T05:49:09;18.90;99.90
1778;DHT22;71547;50.146;8.174;2023-07-24T05:51:41;18.90;99.90
1778;DHT22;71547;50.146;8.174;2023-07-24T05:54:08;18.90;99.90
1778;DHT22;71547;50.146;8.174;2023-07-24T05:56:39;18.90;99.90
1778;DHT22;71547;50.146;8.174;2023-07-24T05:59:24;19.00;99.90
1778;DHT22;71547;50.146;8.174;2023-07-24T06:01:59;19.00;99.90
1778;DHT22;71547;50.146;8.174;2023-07-24T06:04:35;19.00;99.90
1778;DHT22;71547;50.146;8.174;2023-07-24T06:07:09;19.00;99.90
1778;DHT22;71547;50.146;8.174;2023-07-24T06:09:42;19.10;99.90
1778;DHT22;71547;50.146;8.174;2023-07-24T06:12:12;19.10;99.90
1778;DHT22;71547;50.146;8.174;2023-07-24T06:14:39;19.10;99.90
1778;DHT22;71547;50.146;8.174;2023-07-24T06:17:07;19.10;99.90
1778;DHT22;71547;50.146;8.174;2023-07-24T06:19:43;19.10;99.90
1778;DHT22;71547;50.146;8.174;2023-07-24T06:22:15;19.10;99.90
1778;DHT22;71547;50.146;8.174;2023-07-24T06:24:43;19.10;99.90
1778;DHT22;71547;50.146;8.174;2023-07-24T06:27:10;19.20;99.90
1778;DHT22;71547;50.146;8.174;2023-07-24T06:29:40;19.30;99.90
1778;DHT22;71547;50.146;8.174;2023-07-24T06:32:07;19.30;99.90
1778;DHT22;71547;50.146;8.174;2023-07-24T06:34:35;19.30;99.90
1778;DHT22;71547;50.146;8.174;2023-07-24T06:37:03;19.40;99.90
1778;DHT22;71547;50.146;8.174;2023-07-24T06:39:54;19.50;99.90
1778;DHT22;71547;50.146;8.174;2023-07-24T06:42:26;19.50;99.90
1778;DHT22;71547;50.146;8.174;2023-07-24T06:44:57;19.60;99.90
1778;DHT22;71547;50.146;8.174;2023-07-24T06:47:27;19.60;99.90
1778;DHT22;71547;50.146;8.174;2023-07-24T06:49:55;19.60;99.90
1778;DHT22;71547;50.146;8.174;2023-07-24T06:52:28;19.70;99.90
1778;DHT22;71547;50.146;8.174;2023-07-24T06:54:57;19.70;99.90
1778;DHT22;71547;50.146;8.174;2023-07-24T06:57:26;19.70;99.90
1778;DHT22;71547;50.146;8.174;2023-07-24T06:59:54;19.80;99.90
1778;DHT22;71547;50.146;8.174;2023-07-24T07:02:22;19.80;99.90
1778;DHT22;71547;50.146;8.174;2023-07-24T07:04:52;19.90;99.90
1778;DHT22;71547;50.146;8.174;2023-07-24T07:07:23;19.90;99.90
1778;DHT22;71547;50.146;8.174;2023-07-24T07:09:53;19.90;99.90
1778;DHT22;71547;50.146;8.174;2023-07-24T07:12:31;19.90;99.90
1778;DHT22;71547;50.146;8.174;2023-07-24T07:15:02;20.00;99.90
1778;DHT22;71547;50.146;8.174;2023-07-24T07:17:30;20.00;99.90
1778;DHT22;71547;50.146;8.174;2023-07-24T07:20:01;20.00;99.90
1778;DHT22;71547;50.146;8.174;2023-07-24T07:22:32;20.00;99.90
1778;DHT22;71547;50.146;8.174;2023-07-24T07:25:00;20.10;99.90
1778;DHT22;71547;50.146;8.174;2023-07-24T07:27:32;20.10;99.90
1778;DHT22;71547;50.146;8.174;2023-07-24T07:30:00;20.10;99.90
1778;DHT22;71547;50.146;8.174;2023-07-24T07:32:30;20.10;99.90
1778;DHT22;71547;50.146;8.174;2023-07-24T07:34:58;20.20;99.90
1778;DHT22;71547;50.146;8.174;2023-07-24T07:37:32;20.20;99.90
1778;DHT22;71547;50.146;8.174;2023-07-24T07:39:59;20.10;99.90
1778;DHT22;71547;50.146;8.174;2023-07-24T07:42:30;20.10;99.90
1778;DHT22;71547;50.146;8.174;2023-07-24T07:45:06;19.90;99.90
1778;DHT22;71547;50.146;8.174;2023-07-24T07:47:37;19.80;99.90
1778;DHT22;71547;50.146;8.174;2023-07-24T07:50:08;19.70;99.90
1778;DHT22;71547;50.146;8.174;2023-07-24T07:52:38;19.60;99.90
1778;DHT22;71547;50.146;8.174;2023-07-24T07:55:06;19.60;99.90
1778;DHT22;71547;50.146;8.174;2023-07-24T07:57:37;19.60;99.90
1778;DHT22;71547;50.146;8.174;2023-07-24T08:00:08;19.50;99.90
1778;DHT22;71547;50.146;8.174;2023-07-24T08:02:40;19.50;99.90
1778;DHT22;71547;50.146;8.174;2023-07-24T08:05:14;19.50;99.90
1778;DHT22;71547;50.146;8.174;2023-07-24T08:07:47;19.50;99.90
1778;DHT22;71547;50.146;8.174;2023-07-24T08:10:15;19.40;99.90
1778;DHT22;71547;50.146;8.174;2023-07-24T08:12:46;19.60;99.90
1778;DHT22;71547;50.146;8.174;2023-07-24T08:15:14;19.60;99.90
1778;DHT22;71547;50.146;8.174;2023-07-24T08:17:41;19.50;99.90
1778;DHT22;71547;50.146;8.174;2023-07-24T08:20:13;19.50;99.90
1778;DHT22;71547;50.146;8.174;2023-07-24T08:22:41;19.50;99.90
1778;DHT22;71547;50.146;8.174;2023-07-24T08:25:08;19.70;99.90
1778;DHT22;71547;50.146;8.174;2023-07-24T08:27:36;20.00;99.90
1778;DHT22;71547;50.146;8.174;2023-07-24T08:30:25;20.00;99.90
1778;DHT22;71547;50.146;8.174;2023-07-24T08:32:54;20.00;99.90
1778;DHT22;71547;50.146;8.174;2023-07-24T08:35:27;19.90;99.90
1778;DHT22;71547;50.146;8.174;2023-07-24T08:37:55;19.90;99.90
1778;DHT22;71547;50.146;8.174;2023-07-24T08:40:23;20.00;99.90
1778;DHT22;71547;50.146;8.174;2023-07-24T08:42:51;20.20;99.90
1778;DHT22;71547;50.146;8.174;2023-07-24T08:45:20;20.40;99.90
1778;DHT22;71547;50.146;8.174;2023-07-24T08:47:54;20.50;99.90
1778;DHT22;71547;50.146;8.174;2023-07-24T08:50:26;20.70;99.90
1778;DHT22;71547;50.146;8.174;2023-07-24T08:52:54;20.80;99.90
1778;DHT22;71547;50.146;8.174;2023-07-24T08:55:24;21.00;99.90
1778;DHT22;71547;50.146;8.174;2023-07-24T08:57:51;21.00;99.90
1778;DHT22;71547;50.146;8.174;2023-07-24T09:00:19;21.10;99.90
1778;DHT22;71547;50.146;8.174;2023-07-24T09:02:46;21.00;99.90
1778;DHT22;71547;50.146;8.174;2023-07-24T09:05:22;20.90;99.90
1778;DHT22;71547;50.146;8.174;2023-07-24T09:07:50;20.70;99.90
1778;DHT22;71547;50.146;8.174;2023-07-24T09:10:27;20.60;99.90
1778;DHT22;71547;50.146;8.174;2023-07-24T09:12:57;20.40;99.90
1778;DHT22;71547;50.146;8.174;2023-07-24T09:15:25;20.50;99.90
1778;DHT22;71547;50.146;8.174;2023-07-24T09:17:54;20.50;99.90
1778;DHT22;71547;50.146;8.174;2023-07-24T09:20:37;20.60;99.90
1778;DHT22;71547;50.146;8.174;2023-07-24T09:23:05;20.60;99.90
1778;DHT22;71547;50.146;8.174;2023-07-24T09:25:37;20.70;99.90
1778;DHT22;71547;50.146;8.174;2023-07-24T09:28:10;20.80;99.90
1778;DHT22;71547;50.146;8.174;2023-07-24T09:30:40;21.10;99.90
1778;DHT22;71547;50.146;8.174;2023-07-24T09:33:08;21.20;99.90
1778;DHT22;71547;50.146;8.174;2023-07-24T09:35:37;21.20;99.90
1778;DHT22;71547;50.146;8.174;2023-07-24T09:38:08;21.40;99.90
1778;DHT22;71547;50.146;8.174;2023-07-24T09:40:41;21.30;99.90
1778;DHT22;71547;50.146;8.174;2023-07-24T09:43:17;21.10;99.90
1778;DHT22;71547;50.146;8.174;2023-07-24T09:46:05;21.00;99.90
1778;DHT22;71547;50.146;8.174;2023-07-24T09:48:37;21.60;99.90
1778;DHT22;71547;50.146;8.174;2023-07-24T09:51:29;22.10;99.90
1778;DHT22;71547;50.146;8.174;2023-07-24T09:54:03;21.80;99.80
1778;DHT22;71547;50.146;8.174;2023-07-24T09:56:34;21.60;99.90
1778;DHT22;71547;50.146;8.174;2023-07-24T09:59:18;21.50;99.90
1778;DHT22;71547;50.146;8.174;2023-07-24T10:01:50;21.50;99.90
1778;DHT22;71547;50.146;8.174;2023-07-24T10:04:19;21.50;99.90
1778;DHT22;71547;50.146;8.174;2023-07-24T10:06:51;21.40;99.90
1778;DHT22;71547;50.146;8.174;2023-07-24T10:09:22;21.40;99.90
1778;DHT22;71547;50.146;8.174;2023-07-24T10:11:57;21.50;98.90
1778;DHT22;71547;50.146;8.174;2023-07-24T10:14:26;21.70;99.90
1778;DHT22;71547;50.146;8.174;2023-07-24T10:16:55;22.00;99.90
1778;DHT22;71547;50.146;8.174;2023-07-24T10:19:24;22.50;99.10
1778;DHT22;71547;50.146;8.174;2023-07-24T10:21:53;22.80;98.50
1778;DHT22;71547;50.146;8.174;2023-07-24T10:24:29;22.60;98.40
1778;DHT22;71547;50.146;8.174;2023-07-24T10:27:08;22.50;98.60
1778;DHT22;71547;50.146;8.174;2023-07-24T10:29:36;22.30;98.60
1778;DHT22;71547;50.146;8.174;2023-07-24T10:32:05;22.50;98.00
1778;DHT22;71547;50.146;8.174;2023-07-24T10:34:44;22.50;97.60
1778;DHT22;71547;50.146;8.174;2023-07-24T10:37:13;22.50;98.40
1778;DHT22;71547;50.146;8.174;2023-07-24T10:39:41;22.50;97.20
1778;DHT22;71547;50.146;8.174;2023-07-24T10:42:10;22.60;97.10
1778;DHT22;71547;50.146;8.174;2023-07-24T10:44:40;22.60;96.50
1778;DHT22;71547;50.146;8.174;2023-07-24T10:47:08;22.70;96.90
1778;DHT22;71547;50.146;8.174;2023-07-24T10:49:36;22.70;96.90
1778;DHT22;71547;50.146;8.174;2023-07-24T10:52:04;22.80;97.70
1778;DHT22;71547;50.146;8.174;2023-07-24T10:54:36;22.90;96.00
1778;DHT22;71547;50.146;8.174;2023-07-24T10:57:04;22.90;96.20
1778;DHT22;71547;50.146;8.174;2023-07-24T10:59:38;23.10;93.70
1778;DHT22;71547;50.146;8.174;2023-07-24T11:02:07;23.30;93.10
1778;DHT22;71547;50.146;8.174;2023-07-24T11:04:38;23.10;93.60
1778;DHT22;71547;50.146;8.174;2023-07-24T11:07:07;23.20;93.50
1778;DHT22;71547;50.146;8.174;2023-07-24T11:09:39;23.50;93.10
1778;DHT22;71547;50.146;8.174;2023-07-24T11:12:14;23.00;93.50
1778;DHT22;71547;50.146;8.174;2023-07-24T11:14:51;23.00;93.60
1778;DHT22;71547;50.146;8.174;2023-07-24T11:17:34;22.90;94.10
1778;DHT22;71547;50.146;8.174;2023-07-24T11:20:13;22.90;94.60
1778;DHT22;71547;50.146;8.174;2023-07-24T11:22:44;23.20;94.80
1778;DHT22;71547;50.146;8.174;2023-07-24T11:25:13;23.10;94.80
1778;DHT22;71547;50.146;8.174;2023-07-24T11:27:42;23.00;95.10
1778;DHT22;71547;50.146;8.174;2023-07-24T11:30:11;23.30;95.40
1778;DHT22;71547;50.146;8.174;2023-07-24T11:32:40;23.30;96.00
1778;DHT22;71547;50.146;8.174;2023-07-24T11:35:08;23.40;95.80
1778;DHT22;71547;50.146;8.174;2023-07-24T11:37:36;23.30;95.90
1778;DHT22;71547;50.146;8.174;2023-07-24T11:40:05;23.40;95.90
1778;DHT22;71547;50.146;8.174;2023-07-24T11:42:40;23.40;96.40
1778;DHT22;71547;50.146;8.174;2023-07-24T11:45:10;23.40;96.60
1778;DHT22;71547;50.146;8.174;2023-07-24T11:47:44;23.80;96.50
1778;DHT22;71547;50.146;8.174;2023-07-24T11:50:14;24.50;95.60
1778;DHT22;71547;50.146;8.174;2023-07-24T11:52:45;24.70;95.00
1778;DHT22;71547;50.146;8.174;2023-07-24T11:55:15;24.30;95.80
1778;DHT22;71547;50.146;8.174;2023-07-24T11:57:56;24.10;96.10
1778;DHT22;71547;50.146;8.174;2023-07-24T12:00:24;23.90;96.10
1778;DHT22;71547;50.146;8.174;2023-07-24T12:02:53;23.60;96.40
1778;DHT22;71547;50.146;8.174;2023-07-24T12:05:26;23.60;96.40
1778;DHT22;71547;50.146;8.174;2023-07-24T12:07:54;23.90;96.60
1778;DHT22;71547;50.146;8.174;2023-07-24T12:10:26;23.80;95.60
1778;DHT22;71547;50.146;8.174;2023-07-24T12:12:59;24.50;95.50
1778;DHT22;71547;50.146;8.174;2023-07-24T12:15:27;25.10;95.40
1778;DHT22;71547;50.146;8.174;2023-07-24T12:17:58;25.10;93.90
1778;DHT22;71547;50.146;8.174;2023-07-24T12:20:27;25.10;94.30
1778;DHT22;71547;50.146;8.174;2023-07-24T12:22:55;25.20;94.10
1778;DHT22;71547;50.146;8.174;2023-07-24T12:25:24;25.10;94.80
1778;DHT22;71547;50.146;8.174;2023-07-24T12:27:52;25.20;94.20
1778;DHT22;71547;50.146;8.174;2023-07-24T12:30:22;24.20;95.00
1778;DHT22;71547;50.146;8.174;2023-07-24T12:32:50;23.80;95.60
1778;DHT22;71547;50.146;8.174;2023-07-24T12:35:18;23.30;96.10
1778;DHT22;71547;50.146;8.174;2023-07-24T12:37:46;23.10;97.10
1778;DHT22;71547;50.146;8.174;2023-07-24T12:40:13;23.30;97.30
1778;DHT22;71547;50.146;8.174;2023-07-24T12:42:41;23.20;96.50
1778;DHT22;71547;50.146;8.174;2023-07-24T12:45:09;23.10;96.80
1778;DHT22;71547;50.146;8.174;2023-07-24T12:47:38;23.10;96.70
1778;DHT22;71547;50.146;8.174;2023-07-24T12:50:05;23.60;97.30
1778;DHT22;71547;50.146;8.174;2023-07-24T12:52:35;24.40;96.50
1778;DHT22;71547;50.146;8.174;2023-07-24T12:55:04;24.50;96.00
1778;DHT22;71547;50.146;8.174;2023-07-24T12:57:34;24.30;96.20
1778;DHT22;71547;50.146;8.174;2023-07-24T13:00:06;23.80;96.40
1778;DHT22;71547;50.146;8.174;2023-07-24T13:02:35;23.80;96.60
1778;DHT22;71547;50.146;8.174;2023-07-24T13:05:04;23.90;96.60
1778;DHT22;71547;50.146;8.174;2023-07-24T13:07:32;24.30;96.20
1778;DHT22;71547;50.146;8.174;2023-07-24T13:10:00;24.80;95.10
1778;DHT22;71547;50.146;8.174;2023-07-24T13:12:28;25.00;95.00
1778;DHT22;71547;50.146;8.174;2023-07-24T13:14:56;24.90;94.90
1778;DHT22;71547;50.146;8.174;2023-07-24T13:17:24;25.00;95.10
1778;DHT22;71547;50.146;8.174;2023-07-24T13:19:52;25.00;94.90
1778;DHT22;71547;50.146;8.174;2023-07-24T13:22:21;25.10;94.10
1778;DHT22;71547;50.146;8.174;2023-07-24T13:24:49;24.70;94.30
1778;DHT22;71547;50.146;8.174;2023-07-24T13:27:17;24.30;95.10
1778;DHT22;71547;50.146;8.174;2023-07-24T13:29:45;23.90;95.40
1778;DHT22;71547;50.146;8.174;2023-07-24T13:32:13;23.70;95.20
1778;DHT22;71547;50.146;8.174;2023-07-24T13:34:40;23.60;95.60
1778;DHT22;71547;50.146;8.174;2023-07-24T13:37:08;23.50;95.10
1778;DHT22;71547;50.146;8.174;2023-07-24T13:39:37;23.10;95.70
1778;DHT22;71547;50.146;8.174;2023-07-24T13:42:05;23.00;96.10
1778;DHT22;71547;50.146;8.174;2023-07-24T13:44:33;23.00;96.60
1778;DHT22;71547;50.146;8.174;2023-07-24T13:47:01;22.90;96.40
1778;DHT22;71547;50.146;8.174;2023-07-24T13:49:29;22.30;97.80
1778;DHT22;71547;50.146;8.174;2023-07-24T13:51:57;21.50;99.90
1778;DHT22;71547;50.146;8.174;2023-07-24T13:54:24;21.20;99.90
1778;DHT22;71547;50.146;8.174;2023-07-24T13:56:54;21.30;99.90
1778;DHT22;71547;50.146;8.174;2023-07-24T13:59:22;21.70;99.90
1778;DHT22;71547;50.146;8.174;2023-07-24T14:01:50;21.70;99.90
1778;DHT22;71547;50.146;8.174;2023-07-24T14:04:18;21.60;99.90
1778;DHT22;71547;50.146;8.174;2023-07-24T14:06:46;21.60;99.90
1778;DHT22;71547;50.146;8.174;2023-07-24T14:09:13;21.60;99.90
1778;DHT22;71547;50.146;8.174;2023-07-24T14:11:44;22.00;99.90
1778;DHT22;71547;50.146;8.174;2023-07-24T14:14:13;22.20;99.90
1778;DHT22;71547;50.146;8.174;2023-07-24T14:16:41;22.60;99.90
1778;DHT22;71547;50.146;8.174;2023-07-24T14:19:09;22.50;99.90
1778;DHT22;71547;50.146;8.174;2023-07-24T14:21:37;23.30;99.90
1778;DHT22;71547;50.146;8.174;2023-07-24T14:24:04;23.30;99.90
1778;DHT22;71547;50.146;8.174;2023-07-24T14:26:32;23.20;99.90
1778;DHT22;71547;50.146;8.174;2023-07-24T14:29:01;23.70;99.90
1778;DHT22;71547;50.146;8.174;2023-07-24T14:31:30;23.90;99.90
1778;DHT22;71547;50.146;8.174;2023-07-24T14:33:59;23.70;99.90
1778;DHT22;71547;50.146;8.174;2023-07-24T14:36:27;23.60;99.90
1778;DHT22;71547;50.146;8.174;2023-07-24T14:39:04;24.00;99.10
1778;DHT22;71547;50.146;8.174;2023-07-24T14:41:33;23.50;97.70
1778;DHT22;71547;50.146;8.174;2023-07-24T14:44:04;23.40;99.00
1778;DHT22;71547;50.146;8.174;2023-07-24T14:46:35;23.20;98.90
1778;DHT22;71547;50.146;8.174;2023-07-24T14:49:03;23.60;98.20
1778;DHT22;71547;50.146;8.174;2023-07-24T14:51:33;24.00;97.40
1778;DHT22;71547;50.146;8.174;2023-07-24T14:54:01;24.60;97.10
1778;DHT22;71547;50.146;8.174;2023-07-24T14:56:29;24.20;97.20
1778;DHT22;71547;50.146;8.174;2023-07-24T14:59:10;24.30;97.40
1778;DHT22;71547;50.146;8.174;2023-07-24T15:01:39;24.10;96.80
1778;DHT22;71547;50.146;8.174;2023-07-24T15:04:07;24.10;96.60
1778;DHT22;71547;50.146;8.174;2023-07-24T15:06:35;23.90;96.10
1778;DHT22;71547;50.146;8.174;2023-07-24T15:09:02;24.20;95.80
1778;DHT22;71547;50.146;8.174;2023-07-24T15:11:31;24.20;95.20
1778;DHT22;71547;50.146;8.174;2023-07-24T15:13:59;24.30;94.80
1778;DHT22;71547;50.146;8.174;2023-07-24T15:16:27;24.50;94.40
1778;DHT22;71547;50.146;8.174;2023-07-24T15:19:00;24.50;94.60
1778;DHT22;71547;50.146;8.174;2023-07-24T15:21:31;25.00;94.20
1778;DHT22;71547;50.146;8.174;2023-07-24T15:24:06;25.10;93.60
1778;DHT22;71547;50.146;8.174;2023-07-24T15:26:34;25.00;92.70
1778;DHT22;71547;50.146;8.174;2023-07-24T15:29:04;24.80;92.60
1778;DHT22;71547;50.146;8.174;2023-07-24T15:31:37;25.00;92.80
1778;DHT22;71547;50.146;8.174;2023-07-24T15:34:10;24.70;91.30
1778;DHT22;71547;50.146;8.174;2023-07-24T15:36:40;24.60;91.90
1778;DHT22;71547;50.146;8.174;2023-07-24T15:39:12;24.50;91.20
1778;DHT22;71547;50.146;8.174;2023-07-24T15:41:41;24.80;91.90
1778;DHT22;71547;50.146;8.174;2023-07-24T15:44:09;24.60;90.50
1778;DHT22;71547;50.146;8.174;2023-07-24T15:46:41;24.70;89.70
1778;DHT22;71547;50.146;8.174;2023-07-24T15:49:11;24.80;90.30
1778;DHT22;71547;50.146;8.174;2023-07-24T15:51:38;24.90;90.40
1778;DHT22;71547;50.146;8.174;2023-07-24T15:54:07;25.40;90.10
1778;DHT22;71547;50.146;8.174;2023-07-24T15:56:38;25.30;89.40
1778;DHT22;71547;50.146;8.174;2023-07-24T15:59:08;25.10;89.90
1778;DHT22;71547;50.146;8.174;2023-07-24T16:01:38;24.50;90.60
1778;DHT22;71547;50.146;8.174;2023-07-24T16:04:06;24.60;90.50
1778;DHT22;71547;50.146;8.174;2023-07-24T16:06:35;24.20;90.90